createdAt,value
2023-09-05T00:00:48.978Z,17.52
2023-09-05T00:01:49.006Z,17.48
2023-09-05T00:02:48.967Z,17.49
2023-09-05T00:03:48.984Z,17.52
2023-09-05T00:04:48.960Z,17.50
2023-09-05T00:05:48.918Z,17.51
2023-09-05T00:06:48.912Z,17.54
2023-09-05T00:07:48.898Z,17.54
2023-09-05T00:08:48.884Z,17.48
2023-09-05T00:09:48.908Z,17.42
2023-09-05T00:10:48.869Z,17.37
2023-09-05T00:11:48.854Z,17.33
2023-09-05T00:12:48.845Z,17.29
2023-09-05T00:13:48.836Z,17.26
2023-09-05T00:14:48.808Z,17.23
2023-09-05T00:15:48.814Z,17.22
2023-09-05T00:16:48.839Z,17.23
2023-09-05T00:17:48.868Z,17.23
2023-09-05T00:18:48.806Z,17.21
2023-09-05T00:19:48.772Z,17.19
2023-09-05T00:20:48.758Z,17.18
2023-09-05T00:21:48.781Z,17.19
2023-09-05T00:22:48.764Z,17.22
2023-09-05T00:23:48.725Z,17.29
2023-09-05T00:24:48.742Z,17.31
2023-09-05T00:25:48.709Z,17.34
2023-09-05T00:26:48.718Z,17.41
2023-09-05T00:27:48.687Z,17.41
2023-09-05T00:28:48.694Z,17.33
2023-09-05T00:29:48.656Z,17.28
2023-09-05T00:30:48.675Z,17.27
2023-09-05T00:31:48.682Z,17.33
2023-09-05T00:32:48.650Z,17.43
2023-09-05T00:33:48.638Z,17.44
2023-09-05T00:34:48.652Z,17.43
2023-09-05T00:35:48.599Z,17.46
2023-09-05T00:36:48.618Z,17.51
2023-09-05T00:37:48.584Z,17.56
2023-09-05T00:38:48.607Z,17.58
2023-09-05T00:39:48.567Z,17.58
2023-09-05T00:40:48.550Z,17.57
2023-09-05T00:41:48.523Z,17.53
2023-09-05T00:42:48.546Z,17.50
2023-09-05T00:43:48.529Z,17.49
2023-09-05T00:44:48.535Z,17.48
2023-09-05T00:45:48.530Z,17.50
2023-09-05T00:46:48.474Z,17.51
2023-09-05T00:47:48.515Z,17.48
2023-09-05T00:48:48.467Z,17.45
2023-09-05T00:49:49.240Z,17.40
2023-09-05T00:50:48.501Z,17.35
2023-09-05T00:51:48.424Z,17.34
2023-09-05T00:52:48.428Z,17.31
2023-09-05T00:53:48.402Z,17.26
2023-09-05T00:54:48.399Z,17.23
2023-09-05T00:55:48.381Z,17.16
2023-09-05T00:56:48.375Z,17.11
2023-09-05T00:57:48.387Z,17.10
2023-09-05T00:58:48.354Z,17.12
2023-09-05T00:59:48.330Z,17.15
2023-09-05T01:00:48.325Z,17.17
2023-09-05T01:01:48.337Z,17.19
2023-09-05T01:02:48.396Z,17.15
2023-09-05T01:03:48.307Z,17.08
2023-09-05T01:04:48.338Z,17.07
2023-09-05T01:05:48.380Z,17.06
2023-09-05T01:06:48.269Z,16.98
2023-09-05T01:07:48.267Z,16.83
2023-09-05T01:08:48.282Z,16.71
2023-09-05T01:09:48.228Z,16.66
2023-09-05T01:10:48.213Z,16.65
2023-09-05T01:11:48.216Z,16.69
2023-09-05T01:12:48.196Z,16.74
2023-09-05T01:13:48.189Z,16.82
2023-09-05T01:14:48.187Z,16.89
2023-09-05T01:15:48.191Z,16.92
2023-09-05T01:16:48.166Z,16.96
2023-09-05T01:17:48.195Z,16.98
2023-09-05T01:18:48.131Z,16.99
2023-09-05T01:19:48.119Z,17.03
2023-09-05T01:20:48.127Z,17.04
2023-09-05T01:21:48.096Z,17.06
2023-09-05T01:22:48.182Z,17.10
2023-09-05T01:23:48.103Z,17.16
2023-09-05T01:24:48.074Z,17.15
2023-09-05T01:25:48.063Z,17.06
2023-09-05T01:26:48.102Z,16.97
2023-09-05T01:27:48.048Z,16.91
2023-09-05T01:28:48.028Z,16.85
2023-09-05T01:29:48.040Z,16.79
2023-09-05T01:30:48.025Z,16.77
2023-09-05T01:31:48.032Z,16.76
2023-09-05T01:32:48.029Z,16.72
2023-09-05T01:33:47.977Z,16.69
2023-09-05T01:34:47.953Z,16.70
2023-09-05T01:35:47.987Z,16.75
2023-09-05T01:36:47.961Z,16.83
2023-09-05T01:37:47.949Z,16.91
2023-09-05T01:38:47.937Z,16.94
2023-09-05T01:39:47.917Z,16.97
2023-09-05T01:40:47.933Z,16.99
2023-09-05T01:41:47.916Z,16.95
2023-09-05T01:42:47.897Z,16.88
2023-09-05T01:43:47.931Z,16.84
2023-09-05T01:44:47.862Z,16.82
2023-09-05T01:45:47.842Z,16.76
2023-09-05T01:46:47.881Z,16.72
2023-09-05T01:47:47.837Z,16.74
2023-09-05T01:48:47.843Z,16.78
2023-09-05T01:49:47.818Z,16.82
2023-09-05T01:50:47.784Z,16.83
2023-09-05T01:51:47.795Z,16.83
2023-09-05T01:52:47.790Z,16.86
2023-09-05T01:53:47.790Z,16.86
2023-09-05T01:54:47.781Z,16.81
2023-09-05T01:55:47.761Z,16.82
2023-09-05T01:56:47.746Z,16.84
2023-09-05T01:57:47.755Z,16.83
2023-09-05T01:58:47.716Z,16.84
2023-09-05T01:59:47.699Z,16.87
2023-09-05T02:00:47.730Z,16.89
2023-09-05T02:01:47.734Z,16.91
2023-09-05T02:02:47.691Z,16.93
2023-09-05T02:03:47.696Z,16.91
2023-09-05T02:04:47.638Z,16.87
2023-09-05T02:05:47.652Z,16.82
2023-09-05T02:06:47.623Z,16.78
2023-09-05T02:07:47.622Z,16.76
2023-09-05T02:08:47.627Z,16.72
2023-09-05T02:09:47.605Z,16.67
2023-09-05T02:10:47.581Z,16.65
2023-09-05T02:11:47.587Z,16.65
2023-09-05T02:12:47.548Z,16.68
2023-09-05T02:13:47.564Z,16.70
2023-09-05T02:14:47.537Z,16.68
2023-09-05T02:15:47.522Z,16.70
2023-09-05T02:16:47.580Z,16.72
2023-09-05T02:17:47.571Z,16.71
2023-09-05T02:18:47.505Z,16.68
2023-09-05T02:19:47.565Z,16.70
2023-09-05T02:20:47.505Z,16.68
2023-09-05T02:21:47.481Z,16.64
2023-09-05T02:22:47.479Z,16.60
2023-09-05T02:23:47.459Z,16.59
2023-09-05T02:24:47.460Z,16.60
2023-09-05T02:25:47.493Z,16.60
2023-09-05T02:26:47.421Z,16.60
2023-09-05T02:27:47.455Z,16.61
2023-09-05T02:28:47.421Z,16.67
2023-09-05T02:29:47.384Z,16.68
2023-09-05T02:30:47.469Z,16.67
2023-09-05T02:31:47.367Z,16.66
2023-09-05T02:32:47.374Z,16.67
2023-09-05T02:33:47.335Z,16.68
2023-09-05T02:34:47.341Z,16.68
2023-09-05T02:35:47.367Z,16.70
2023-09-05T02:36:47.310Z,16.74
2023-09-05T02:37:47.289Z,16.72
2023-09-05T02:38:47.468Z,16.72
2023-09-05T02:39:47.282Z,16.73
2023-09-05T02:40:47.295Z,16.72
2023-09-05T02:41:47.255Z,16.72
2023-09-05T02:42:47.269Z,16.71
2023-09-05T02:43:47.258Z,16.67
2023-09-05T02:44:47.234Z,16.60
2023-09-05T02:45:47.268Z,16.53
2023-09-05T02:46:47.249Z,16.50
2023-09-05T02:47:47.249Z,16.51
2023-09-05T02:48:47.214Z,16.52
2023-09-05T02:49:47.224Z,16.51
2023-09-05T02:50:47.163Z,16.53
2023-09-05T02:51:47.187Z,16.54
2023-09-05T02:52:48.309Z,16.51
2023-09-05T02:53:47.137Z,16.45
2023-09-05T02:54:47.112Z,16.38
2023-09-05T02:55:47.123Z,16.31
2023-09-05T02:56:47.086Z,16.26
2023-09-05T02:57:47.108Z,16.24
2023-09-05T02:58:47.087Z,16.26
2023-09-05T02:59:47.055Z,16.30
2023-09-05T03:00:47.056Z,16.30
2023-09-05T03:01:47.113Z,16.30
2023-09-05T03:02:47.079Z,16.37
2023-09-05T03:03:47.082Z,16.45
2023-09-05T03:04:47.018Z,16.48
2023-09-05T03:05:46.997Z,16.46
2023-09-05T03:06:46.992Z,16.47
2023-09-05T03:07:47.005Z,16.51
2023-09-05T03:08:47.028Z,16.54
2023-09-05T03:09:47.015Z,16.55
2023-09-05T03:10:46.961Z,16.60
2023-09-05T03:11:46.940Z,16.58
2023-09-05T03:12:46.926Z,16.52
2023-09-05T03:13:46.960Z,16.50
2023-09-05T03:14:46.959Z,16.47
2023-09-05T03:15:46.958Z,16.44
2023-09-05T03:16:47.438Z,16.42
2023-09-05T03:17:46.987Z,16.40
2023-09-05T03:18:46.885Z,16.41
2023-09-05T03:19:46.899Z,16.44
2023-09-05T03:20:46.883Z,16.45
2023-09-05T03:21:46.886Z,16.45
2023-09-05T03:22:46.842Z,16.40
2023-09-05T03:23:46.820Z,16.39
2023-09-05T03:24:46.803Z,16.39
2023-09-05T03:25:46.823Z,16.40
2023-09-05T03:26:46.779Z,16.38
2023-09-05T03:27:46.797Z,16.36
2023-09-05T03:28:46.810Z,16.39
2023-09-05T03:29:46.761Z,16.42
2023-09-05T03:30:46.745Z,16.41
2023-09-05T03:31:46.803Z,16.41
2023-09-05T03:32:46.715Z,16.45
2023-09-05T03:33:46.729Z,16.43
2023-09-05T03:34:46.703Z,16.43
2023-09-05T03:35:46.692Z,16.45
2023-09-05T03:36:46.676Z,16.45
2023-09-05T03:37:46.677Z,16.48
2023-09-05T03:38:46.652Z,16.53
2023-09-05T03:39:46.643Z,16.50
2023-09-05T03:40:46.641Z,16.44
2023-09-05T03:41:46.617Z,16.42
2023-09-05T03:42:46.640Z,16.36
2023-09-05T03:43:46.608Z,16.25
2023-09-05T03:44:46.607Z,16.20
2023-09-05T03:45:46.631Z,16.15
2023-09-05T03:46:46.567Z,16.11
2023-09-05T03:47:59.635Z,16.11
2023-09-05T03:48:46.630Z,16.13
2023-09-05T03:49:46.551Z,16.16
2023-09-05T03:50:46.547Z,16.19
2023-09-05T03:51:46.507Z,16.23
2023-09-05T03:52:46.516Z,16.21
2023-09-05T03:53:46.487Z,16.15
2023-09-05T03:54:46.492Z,16.17
2023-09-05T03:55:46.493Z,16.23
2023-09-05T03:56:46.493Z,16.26
2023-09-05T03:57:46.462Z,16.27
2023-09-05T03:58:46.434Z,16.27
2023-09-05T03:59:46.447Z,16.31
2023-09-05T04:00:46.439Z,16.31
2023-09-05T04:01:46.411Z,16.30
2023-09-05T04:02:48.466Z,16.29
2023-09-05T04:03:46.527Z,16.30
2023-09-05T04:04:46.367Z,16.34
2023-09-05T04:05:46.390Z,16.38
2023-09-05T04:06:46.366Z,16.36
2023-09-05T04:07:46.345Z,16.35
2023-09-05T04:08:46.350Z,16.35
2023-09-05T04:09:46.331Z,16.32
2023-09-05T04:10:46.314Z,16.28
2023-09-05T04:11:46.318Z,16.27
2023-09-05T04:12:46.314Z,16.27
2023-09-05T04:13:46.291Z,16.29
2023-09-05T04:14:46.304Z,16.32
2023-09-05T04:15:46.311Z,16.32
2023-09-05T04:16:46.245Z,16.32
2023-09-05T04:17:46.272Z,16.35
2023-09-05T04:18:46.225Z,16.35
2023-09-05T04:19:46.227Z,16.32
2023-09-05T04:20:46.361Z,16.25
2023-09-05T04:21:46.189Z,16.19
2023-09-05T04:22:46.219Z,16.12
2023-09-05T04:23:46.186Z,16.00
2023-09-05T04:24:46.175Z,15.93
2023-09-05T04:25:46.170Z,15.92
2023-09-05T04:26:46.155Z,15.96
2023-09-05T04:27:46.154Z,16.04
2023-09-05T04:28:46.152Z,16.13
2023-09-05T04:29:46.115Z,16.18
2023-09-05T04:30:46.108Z,16.21
2023-09-05T04:31:46.107Z,16.19
2023-09-05T04:32:46.112Z,16.16
2023-09-05T04:33:46.085Z,16.16
2023-09-05T04:34:46.101Z,16.12
2023-09-05T04:35:46.066Z,16.09
2023-09-05T04:36:46.055Z,16.06
2023-09-05T04:37:46.045Z,16.05
2023-09-05T04:38:46.031Z,16.02
2023-09-05T04:39:46.024Z,15.97
2023-09-05T04:40:45.992Z,15.94
2023-09-05T04:41:45.983Z,15.90
2023-09-05T04:42:46.004Z,15.89
2023-09-05T04:43:45.976Z,15.88
2023-09-05T04:44:45.968Z,15.86
2023-09-05T04:45:45.949Z,15.90
2023-09-05T04:46:46.025Z,15.96
2023-09-05T04:47:45.940Z,16.00
2023-09-05T04:48:45.965Z,16.01
2023-09-05T04:49:45.906Z,16.01
2023-09-05T04:50:45.920Z,16.05
2023-09-05T04:51:45.880Z,16.08
2023-09-05T04:52:45.889Z,16.07
2023-09-05T04:53:45.872Z,16.01
2023-09-05T04:54:45.856Z,15.93
2023-09-05T04:55:46.167Z,15.92
2023-09-05T04:56:45.838Z,15.95
2023-09-05T04:57:45.829Z,15.97
2023-09-05T04:58:45.806Z,15.99
2023-09-05T04:59:45.801Z,16.02
2023-09-05T05:00:45.806Z,16.02
2023-09-05T05:01:45.785Z,15.96
2023-09-05T05:02:45.815Z,15.91
2023-09-05T05:03:45.817Z,15.92
2023-09-05T05:04:45.764Z,15.92
2023-09-05T05:05:45.798Z,15.89
2023-09-05T05:06:45.710Z,15.86
2023-09-05T05:07:45.699Z,15.80
2023-09-05T05:08:45.712Z,15.78
2023-09-05T05:09:45.690Z,15.78
2023-09-05T05:10:45.689Z,15.78
2023-09-05T05:11:45.706Z,15.78
2023-09-05T05:12:45.674Z,15.80
2023-09-05T05:13:45.668Z,15.79
2023-09-05T05:14:45.629Z,15.74
2023-09-05T05:15:45.639Z,15.70
2023-09-05T05:16:45.615Z,15.70
2023-09-05T05:17:45.642Z,15.73
2023-09-05T05:18:45.597Z,15.76
2023-09-05T05:19:45.624Z,15.79
2023-09-05T05:20:45.611Z,15.80
2023-09-05T05:21:45.656Z,15.79
2023-09-05T05:22:45.558Z,15.77
2023-09-05T05:23:45.592Z,15.74
2023-09-05T05:24:46.599Z,15.73
2023-09-05T05:25:45.565Z,15.75
2023-09-05T05:26:45.534Z,15.80
2023-09-05T05:27:45.531Z,15.85
2023-09-05T05:28:45.541Z,15.92
2023-09-05T05:29:45.501Z,15.98
2023-09-05T05:30:45.488Z,16.00
2023-09-05T05:31:45.696Z,15.99
2023-09-05T05:32:45.469Z,15.96
2023-09-05T05:33:45.530Z,15.96
2023-09-05T05:34:45.612Z,15.96
2023-09-05T05:35:45.525Z,15.98
2023-09-05T05:36:45.419Z,16.02
2023-09-05T05:37:45.415Z,16.05
2023-09-05T05:38:45.589Z,16.08
2023-09-05T05:39:45.417Z,16.12
2023-09-05T05:40:45.381Z,16.13
2023-09-05T05:41:45.430Z,16.12
2023-09-05T05:42:45.336Z,16.11
2023-09-05T05:43:45.342Z,16.13
2023-09-05T05:44:45.354Z,16.20
2023-09-05T05:45:45.313Z,16.25
2023-09-05T05:46:45.319Z,16.29
2023-09-05T05:47:45.312Z,16.33
2023-09-05T05:48:45.329Z,16.38
2023-09-05T05:49:45.279Z,16.42
2023-09-05T05:50:45.262Z,16.44
2023-09-05T05:51:45.245Z,16.46
2023-09-05T05:52:45.233Z,16.48
2023-09-05T05:53:45.236Z,16.52
2023-09-05T05:54:45.211Z,16.56
2023-09-05T05:55:45.222Z,16.59
2023-09-05T05:56:45.203Z,16.62
2023-09-05T05:57:45.186Z,16.65
2023-09-05T05:58:45.189Z,16.65
2023-09-05T05:59:45.167Z,16.65
2023-09-05T06:00:45.161Z,16.67
2023-09-05T06:01:45.174Z,16.70
2023-09-05T06:02:45.174Z,16.73
2023-09-05T06:03:45.184Z,16.77
2023-09-05T06:04:46.084Z,16.81
2023-09-05T06:05:46.209Z,16.86
2023-09-05T06:06:47.084Z,16.90
2023-09-05T06:07:47.074Z,16.93
2023-09-05T06:08:45.735Z,16.95
2023-09-05T06:09:45.056Z,16.94
2023-09-05T06:10:45.050Z,16.95
2023-09-05T06:11:45.039Z,16.97
2023-09-05T06:12:45.050Z,16.98
2023-09-05T06:13:45.012Z,17.00
2023-09-05T06:14:45.007Z,17.03
2023-09-05T06:15:45.020Z,17.08
2023-09-05T06:16:45.017Z,17.13
2023-09-05T06:17:45.034Z,17.18
2023-09-05T06:18:44.976Z,17.23
2023-09-05T06:19:44.968Z,17.28
2023-09-05T06:20:44.942Z,17.32
2023-09-05T06:21:44.929Z,17.36
2023-09-05T06:22:44.912Z,17.39
2023-09-05T06:23:44.944Z,17.41
2023-09-05T06:24:44.917Z,17.44
2023-09-05T06:25:44.883Z,17.47
2023-09-05T06:26:44.889Z,17.50
2023-09-05T06:27:44.893Z,17.54
2023-09-05T06:28:44.857Z,17.56
2023-09-05T06:29:44.891Z,17.56
2023-09-05T06:30:44.834Z,17.59
2023-09-05T06:31:44.897Z,17.63
2023-09-05T06:32:44.865Z,17.67
2023-09-05T06:33:44.839Z,17.72
2023-09-05T06:34:44.794Z,17.75
2023-09-05T06:35:44.798Z,17.78
2023-09-05T06:36:44.764Z,17.81
2023-09-05T06:37:44.762Z,17.84
2023-09-05T06:38:44.765Z,17.87
2023-09-05T06:39:44.792Z,17.89
2023-09-05T06:40:44.743Z,17.91
2023-09-05T06:41:44.770Z,17.93
2023-09-05T06:42:44.723Z,17.95
2023-09-05T06:43:44.694Z,17.98
2023-09-05T06:44:44.704Z,18.02
2023-09-05T06:45:44.682Z,18.06
2023-09-05T06:46:44.670Z,18.11
2023-09-05T06:47:44.687Z,18.15
2023-09-05T06:48:44.647Z,18.19
2023-09-05T06:49:44.647Z,18.22
2023-09-05T06:50:44.638Z,18.26
2023-09-05T06:51:44.632Z,18.29
2023-09-05T06:52:44.604Z,18.31
2023-09-05T06:53:44.598Z,18.34
2023-09-05T06:54:44.576Z,18.38
2023-09-05T06:55:44.577Z,18.43
2023-09-05T06:56:44.583Z,18.47
2023-09-05T06:57:44.568Z,18.50
2023-09-05T06:58:44.541Z,18.53
2023-09-05T06:59:44.544Z,18.56
2023-09-05T07:00:44.542Z,18.60
2023-09-05T07:01:44.553Z,18.63
2023-09-05T07:02:44.556Z,18.67
2023-09-05T07:03:44.517Z,18.72
2023-09-05T07:04:44.565Z,18.76
2023-09-05T07:05:49.611Z,18.79
2023-09-05T07:06:44.489Z,18.81
2023-09-05T07:07:44.478Z,18.83
2023-09-05T07:08:44.487Z,18.87
2023-09-05T07:09:44.459Z,18.93
2023-09-05T07:10:44.446Z,18.98
2023-09-05T07:11:44.420Z,19.04
2023-09-05T07:12:44.405Z,19.11
2023-09-05T07:13:44.382Z,19.20
2023-09-05T07:14:45.478Z,19.27
2023-09-05T07:15:44.366Z,19.33
2023-09-05T07:16:44.371Z,19.37
2023-09-05T07:17:44.369Z,19.45
2023-09-05T07:18:44.335Z,19.54
2023-09-05T07:19:44.344Z,19.64
2023-09-05T07:20:44.317Z,19.70
2023-09-05T07:21:44.296Z,19.73
2023-09-05T07:22:44.292Z,19.78
2023-09-05T07:23:44.288Z,19.84
2023-09-05T07:24:44.292Z,19.92
2023-09-05T07:25:44.301Z,20.03
2023-09-05T07:26:44.268Z,20.15
2023-09-05T07:27:44.272Z,20.25
2023-09-05T07:28:44.215Z,20.35
2023-09-05T07:29:44.216Z,20.43
2023-09-05T07:30:44.222Z,20.49
2023-09-05T07:31:44.204Z,20.57
2023-09-05T07:32:44.209Z,20.70
2023-09-05T07:33:44.171Z,20.81
2023-09-05T07:34:44.184Z,20.89
2023-09-05T07:35:44.139Z,20.94
2023-09-05T07:36:44.132Z,20.99
2023-09-05T07:37:44.115Z,21.07
2023-09-05T07:38:44.129Z,21.16
2023-09-05T07:39:44.091Z,21.26
2023-09-05T07:40:44.092Z,21.32
2023-09-05T07:41:44.074Z,21.38
2023-09-05T07:42:44.062Z,21.44
2023-09-05T07:43:44.078Z,21.52
2023-09-05T07:44:44.044Z,21.62
2023-09-05T07:45:44.034Z,21.69
2023-09-05T07:46:44.008Z,21.74
2023-09-05T07:47:44.060Z,21.79
2023-09-05T07:48:43.992Z,21.84
2023-09-05T07:49:44.011Z,21.92
2023-09-05T07:50:43.982Z,22.00
2023-09-05T07:51:44.133Z,22.06
2023-09-05T07:52:43.956Z,22.15
2023-09-05T07:53:43.956Z,22.25
2023-09-05T07:54:43.947Z,22.33
2023-09-05T07:55:43.958Z,22.39
2023-09-05T07:56:43.977Z,22.48
2023-09-05T07:57:43.912Z,22.60
2023-09-05T07:58:43.916Z,22.72
2023-09-05T07:59:43.881Z,22.80
2023-09-05T08:00:43.885Z,22.85
2023-09-05T08:01:43.862Z,22.89
2023-09-05T08:02:43.897Z,22.98
2023-09-05T08:03:43.912Z,23.08
2023-09-05T08:04:43.859Z,23.16
2023-09-05T08:05:43.823Z,23.24
2023-09-05T08:06:43.871Z,23.28
2023-09-05T08:07:43.811Z,23.31
2023-09-05T08:08:43.790Z,23.40
2023-09-05T08:09:43.786Z,23.51
2023-09-05T08:10:43.772Z,23.60
2023-09-05T08:11:43.749Z,23.72
2023-09-05T08:12:43.754Z,23.87
2023-09-05T08:13:43.738Z,24.07
2023-09-05T08:14:43.721Z,24.21
2023-09-05T08:15:43.731Z,24.28
2023-09-05T08:16:43.705Z,24.32
2023-09-05T08:17:43.733Z,24.34
2023-09-05T08:18:43.683Z,24.42
2023-09-05T08:19:43.679Z,24.49
2023-09-05T08:20:43.690Z,24.51
2023-09-05T08:21:43.666Z,24.55
2023-09-05T08:22:43.637Z,24.61
2023-09-05T08:23:43.642Z,24.67
2023-09-05T08:24:43.637Z,24.73
2023-09-05T08:25:43.607Z,24.83
2023-09-05T08:26:43.596Z,24.93
2023-09-05T08:27:43.601Z,25.00
2023-09-05T08:28:43.614Z,25.11
2023-09-05T08:29:43.571Z,25.29
2023-09-05T08:30:43.551Z,25.43
2023-09-05T08:31:43.623Z,25.50
2023-09-05T08:32:43.567Z,25.55
2023-09-05T08:33:43.638Z,25.62
2023-09-05T08:34:43.523Z,25.69
2023-09-05T08:35:43.490Z,25.70
2023-09-05T08:36:43.507Z,25.77
2023-09-05T08:37:43.475Z,25.92
2023-09-05T08:38:43.462Z,26.01
2023-09-05T08:39:43.482Z,26.12
2023-09-05T08:40:43.449Z,26.33
2023-09-05T08:41:43.432Z,26.52
2023-09-05T08:42:43.438Z,26.66
2023-09-05T08:43:43.420Z,26.77
2023-09-05T08:44:43.402Z,26.79
2023-09-05T08:45:43.387Z,26.80
2023-09-05T08:46:43.404Z,26.81
2023-09-05T08:47:43.386Z,26.79
2023-09-05T08:48:54.209Z,26.84
2023-09-05T08:49:43.368Z,26.95
2023-09-05T08:50:43.344Z,26.94
2023-09-05T08:51:43.317Z,26.92
2023-09-05T08:52:43.310Z,27.03
2023-09-05T08:53:43.326Z,27.19
2023-09-05T08:54:43.317Z,27.34
2023-09-05T08:55:43.285Z,27.45
2023-09-05T08:56:43.267Z,27.49
2023-09-05T08:57:43.257Z,27.53
2023-09-05T08:58:43.242Z,27.59
2023-09-05T08:59:43.257Z,27.65
2023-09-05T09:00:43.292Z,27.69
2023-09-05T09:01:43.218Z,27.75
2023-09-05T09:02:43.265Z,27.78
2023-09-05T09:03:43.192Z,27.80
2023-09-05T09:04:43.200Z,27.86
2023-09-05T09:05:43.171Z,27.88
2023-09-05T09:06:43.150Z,27.79
2023-09-05T09:07:43.159Z,27.70
2023-09-05T09:08:43.157Z,27.68
2023-09-05T09:09:43.137Z,27.64
2023-09-05T09:10:43.123Z,27.49
2023-09-05T09:11:43.133Z,27.32
2023-09-05T09:12:43.106Z,27.19
2023-09-05T09:13:43.085Z,27.13
2023-09-05T09:14:43.088Z,27.23
2023-09-05T09:15:43.072Z,27.38
2023-09-05T09:16:43.099Z,27.39
2023-09-05T09:17:43.203Z,27.37
2023-09-05T09:18:43.038Z,27.42
2023-09-05T09:19:43.022Z,27.49
2023-09-05T09:20:43.034Z,27.59
2023-09-05T09:21:43.032Z,27.73
2023-09-05T09:22:42.988Z,27.78
2023-09-05T09:23:43.001Z,27.79
2023-09-05T09:24:42.975Z,27.87
2023-09-05T09:25:42.971Z,27.97
2023-09-05T09:26:42.954Z,28.05
2023-09-05T09:27:42.952Z,28.15
2023-09-05T09:28:42.939Z,28.24
2023-09-05T09:29:42.949Z,28.33
2023-09-05T09:30:42.960Z,28.39
2023-09-05T09:31:42.911Z,28.40
2023-09-05T09:32:42.944Z,28.37
2023-09-05T09:33:43.062Z,28.26
2023-09-05T09:34:42.882Z,28.15
2023-09-05T09:35:42.867Z,28.10
2023-09-05T09:36:42.880Z,28.20
2023-09-05T09:37:42.857Z,28.33
2023-09-05T09:38:42.827Z,28.46
2023-09-05T09:39:42.835Z,28.61
2023-09-05T09:40:42.832Z,28.82
2023-09-05T09:41:42.814Z,29.07
2023-09-05T09:42:42.800Z,29.23
2023-09-05T09:43:42.785Z,29.27
2023-09-05T09:44:42.773Z,29.24
2023-09-05T09:45:42.857Z,29.23
2023-09-05T09:46:42.764Z,29.25
2023-09-05T09:47:42.731Z,29.32
2023-09-05T09:48:42.740Z,29.44
2023-09-05T09:49:42.712Z,29.58
2023-09-05T09:50:42.715Z,29.70
2023-09-05T09:51:42.693Z,29.75
2023-09-05T09:52:42.685Z,29.78
2023-09-05T09:53:42.665Z,29.93
2023-09-05T09:54:42.656Z,30.12
2023-09-05T09:55:42.641Z,30.18
2023-09-05T09:56:42.643Z,30.19
2023-09-05T09:57:43.873Z,30.21
2023-09-05T09:58:42.630Z,30.37
2023-09-05T09:59:42.610Z,30.46
2023-09-05T10:00:42.615Z,30.53
2023-09-05T10:01:43.675Z,30.73
2023-09-05T10:02:42.652Z,31.10
2023-09-05T10:03:42.662Z,31.58
2023-09-05T10:04:42.550Z,31.93
2023-09-05T10:05:42.866Z,32.05
2023-09-05T10:06:42.533Z,31.99
2023-09-05T10:07:42.551Z,31.92
2023-09-05T10:08:46.323Z,31.86
2023-09-05T10:09:42.507Z,31.89
2023-09-05T10:10:42.487Z,32.06
2023-09-05T10:11:42.472Z,32.38
2023-09-05T10:12:42.468Z,32.77
2023-09-05T10:13:42.529Z,32.99
2023-09-05T10:14:42.438Z,33.06
2023-09-05T10:15:42.447Z,33.08
2023-09-05T10:16:42.489Z,33.16
2023-09-05T10:17:42.492Z,33.41
2023-09-05T10:18:42.412Z,33.39
2023-09-05T10:19:42.429Z,33.25
2023-09-05T10:20:42.390Z,33.24
2023-09-05T10:21:42.373Z,33.12
2023-09-05T10:22:42.365Z,32.82
2023-09-05T10:23:42.367Z,32.63
2023-09-05T10:24:42.342Z,32.43
2023-09-05T10:25:42.341Z,32.30
2023-09-05T10:26:42.325Z,32.38
2023-09-05T10:27:42.307Z,32.61
2023-09-05T10:28:42.306Z,32.97
2023-09-05T10:29:42.309Z,33.42
2023-09-05T10:30:42.285Z,33.71
2023-09-05T10:31:42.326Z,33.71
2023-09-05T10:32:42.271Z,33.72
2023-09-05T10:33:42.241Z,33.84
2023-09-05T10:34:42.236Z,33.89
2023-09-05T10:35:42.248Z,33.90
2023-09-05T10:36:42.247Z,33.78
2023-09-05T10:37:42.207Z,33.80
2023-09-05T10:38:42.202Z,33.92
2023-09-05T10:39:42.188Z,33.63
2023-09-05T10:40:42.173Z,33.09
2023-09-05T10:41:42.195Z,32.60
2023-09-05T10:42:42.187Z,32.40
2023-09-05T10:43:42.156Z,32.41
2023-09-05T10:44:42.152Z,32.47
2023-09-05T10:45:42.147Z,32.57
2023-09-05T10:46:42.107Z,32.90
2023-09-05T10:47:42.155Z,33.15
2023-09-05T10:48:42.320Z,32.94
2023-09-05T10:49:42.082Z,32.61
2023-09-05T10:50:42.071Z,32.74
2023-09-05T10:51:42.077Z,33.26
2023-09-05T10:52:42.069Z,33.74
2023-09-05T10:53:42.041Z,34.18
2023-09-05T10:54:42.028Z,34.49
2023-09-05T10:55:42.023Z,34.18
2023-09-05T10:56:42.134Z,33.56
2023-09-05T10:57:42.087Z,33.16
2023-09-05T10:58:41.994Z,32.92
2023-09-05T10:59:41.978Z,32.80
2023-09-05T11:00:41.996Z,32.64
2023-09-05T11:01:41.994Z,32.63
2023-09-05T11:02:42.003Z,32.85
2023-09-05T11:03:42.001Z,32.94
2023-09-05T11:04:41.980Z,32.88
2023-09-05T11:05:41.921Z,32.62
2023-09-05T11:06:41.942Z,32.48
2023-09-05T11:07:41.901Z,32.63
2023-09-05T11:08:41.909Z,33.01
2023-09-05T11:09:41.903Z,33.35
2023-09-05T11:10:41.868Z,33.55
2023-09-05T11:11:41.874Z,33.37
2023-09-05T11:12:42.062Z,33.13
2023-09-05T11:13:41.854Z,33.10
2023-09-05T11:14:41.852Z,33.29
2023-09-05T11:15:41.867Z,33.71
2023-09-05T11:16:41.800Z,34.03
2023-09-05T11:17:41.811Z,34.21
2023-09-05T11:18:41.790Z,34.37
2023-09-05T11:19:41.791Z,34.57
2023-09-05T11:20:41.784Z,34.48
2023-09-05T11:21:41.762Z,34.10
2023-09-05T11:22:42.236Z,33.82
2023-09-05T11:23:41.745Z,33.84
2023-09-05T11:24:41.732Z,34.00
2023-09-05T11:25:41.708Z,34.04
2023-09-05T11:26:41.724Z,33.85
2023-09-05T11:27:41.733Z,33.43
2023-09-05T11:28:41.695Z,33.17
2023-09-05T11:29:41.677Z,33.18
2023-09-05T11:30:41.698Z,33.08
2023-09-05T11:31:41.706Z,33.03
2023-09-05T11:32:41.735Z,33.08
2023-09-05T11:33:41.652Z,33.23
2023-09-05T11:34:41.769Z,33.66
2023-09-05T11:35:41.780Z,34.29
2023-09-05T11:36:41.656Z,34.78
2023-09-05T11:37:42.113Z,34.85
2023-09-05T11:38:41.586Z,34.80
2023-09-05T11:39:41.584Z,34.37
2023-09-05T11:40:41.563Z,34.12
2023-09-05T11:41:41.562Z,34.28
2023-09-05T11:42:41.564Z,34.18
2023-09-05T11:43:41.532Z,33.78
2023-09-05T11:44:41.521Z,33.46
2023-09-05T11:45:41.705Z,33.08
2023-09-05T11:46:41.832Z,32.53
2023-09-05T11:47:41.606Z,32.05
2023-09-05T11:48:41.498Z,31.86
2023-09-05T11:49:41.477Z,31.90
2023-09-05T11:50:41.466Z,32.08
2023-09-05T11:54:40.337Z,33.48
2023-09-05T11:55:22.254Z,33.08
2023-09-05T11:56:22.233Z,32.90
2023-09-05T11:57:22.225Z,32.69
2023-09-05T11:58:22.213Z,32.56
2023-09-05T11:59:22.201Z,32.58
2023-09-05T12:00:22.231Z,32.64
2023-09-05T12:01:22.197Z,32.63
2023-09-05T12:02:22.233Z,32.62
2023-09-05T12:03:22.291Z,32.63
2023-09-05T12:04:22.283Z,32.38
2023-09-05T12:05:22.154Z,31.82
2023-09-05T12:06:22.154Z,31.20
2023-09-05T12:07:22.127Z,30.79
2023-09-05T12:08:35.491Z,30.69
2023-09-05T12:09:22.133Z,30.58
2023-09-05T12:10:22.083Z,30.40
2023-09-05T12:11:22.069Z,30.14
2023-09-05T12:12:22.078Z,29.90
2023-09-05T12:13:22.042Z,29.77
2023-09-05T12:14:22.038Z,29.70
2023-09-05T12:15:22.022Z,29.61
2023-09-05T12:16:22.046Z,29.44
2023-09-05T12:17:22.022Z,29.20
2023-09-05T12:18:22.112Z,28.91
2023-09-05T12:19:21.987Z,28.73
2023-09-05T12:20:21.965Z,28.68
2023-09-05T12:21:22.612Z,28.67
2023-09-05T12:22:21.959Z,28.65
2023-09-05T12:23:21.930Z,28.57
2023-09-05T12:24:21.981Z,28.51
2023-09-05T12:25:23.464Z,28.42
2023-09-05T12:26:21.918Z,28.34
2023-09-05T12:27:21.892Z,28.33
2023-09-05T12:28:22.034Z,28.36
2023-09-05T12:29:21.879Z,28.47
2023-09-05T12:30:21.876Z,28.57
2023-09-05T12:31:21.951Z,28.61
2023-09-05T12:32:21.852Z,28.60
2023-09-05T12:33:21.904Z,28.54
2023-09-05T12:34:21.835Z,28.43
2023-09-05T12:35:22.040Z,28.37
2023-09-05T12:36:21.797Z,28.34
2023-09-05T12:37:21.804Z,28.33
2023-09-05T12:38:21.776Z,28.39
2023-09-05T12:39:21.776Z,28.50
2023-09-05T12:40:21.764Z,28.59
2023-09-05T12:41:21.769Z,28.66
2023-09-05T12:42:21.733Z,28.67
2023-09-05T12:43:21.752Z,28.63
2023-09-05T12:44:21.720Z,28.55
2023-09-05T12:45:21.709Z,28.50
2023-09-05T12:46:21.738Z,28.49
2023-09-05T12:47:21.699Z,28.50
2023-09-05T12:48:21.684Z,28.53
2023-09-05T12:49:21.896Z,28.52
2023-09-05T12:50:21.678Z,28.46
2023-09-05T12:51:21.661Z,28.44
2023-09-05T12:52:21.636Z,28.48
2023-09-05T12:53:21.672Z,28.52
2023-09-05T12:54:21.617Z,28.50
2023-09-05T12:55:21.602Z,28.45